METAR Formatted Surface Weather Observation
Issued by NWS

Home | Current Version | Previous Version | Text Only | Print | Product List | Glossary On
Versions: 1 2 3 4 5 6 7
000
SAUS42 KTAE 022000
MTR1J0
METAR K1J0 021958Z AUTO 21009KT 10SM FEW037 28/19 A2996 RMK AO2
SLPNO T02830194



USA.gov is the U.S. government's official web portal to all federal, state and local government web resources and services.